KSTC

St Cloud Regional Airport

St Cloud, Minnesota, USA
METAR KSTC 230453Z AUTO 31006KT 10SM CLR 00/M04 A3027 RMK AO2 SLP268 T00001039
Observed Flight Rules
Oct-23 @ 04:53 UTC (24 minutes ago) Visual Flight Rules
Wind Visibility Clouds
310° at 6 knots 10 miles
  • Clear skies
Temperatures Readings
Current 0°C / 32°F
Dewpoint -4°C / 25°F
Humidity 75%
Altimeter 30.27" Hg
Pressure 1026.8 hPa
Elevation 314
METAR KSTC 230453Z AUTO 31006KT 10SM CLR 00/M04 A3027 RMK AO2 SLP268 T00001039
Observed Flight Rules
Oct-23 @ 04:53 UTC
(24 minutes ago)
VFR
Wind Visibility
310° at 6 knots 10 miles
Clouds
  • Clear skies
Temperature Dewpoint
0°C / 32°F -4°C / 25°F
Humidity Altimeter Pressure
75% 30.27" Hg 1026.8 hPa